sensor_id;sensor_type;location;lat;lon;timestamp;pressure;altitude;pressure_sealevel;temperature;humidity
76106;BME280;64832;45.274;5.880;2022-12-18T09:25:49;100189.22;;;17.77;47.73
76106;BME280;64832;45.274;5.880;2022-12-18T09:28:18;100180.84;;;17.65;48.38
76106;BME280;64832;45.274;5.880;2022-12-18T09:30:47;100181.00;;;17.57;48.64
76106;BME280;64832;45.274;5.880;2022-12-18T09:33:12;100179.59;;;17.61;48.84
76106;BME280;64832;45.274;5.880;2022-12-18T09:35:39;100192.72;;;17.64;48.55
76106;BME280;64832;45.274;5.880;2022-12-18T09:38:05;100178.53;;;17.62;48.69
76106;BME280;64832;45.274;5.880;2022-12-18T09:40:36;100187.09;;;17.66;48.71
76106;BME280;64832;45.274;5.880;2022-12-18T09:43:06;100178.34;;;17.64;48.67
76106;BME280;64832;45.274;5.880;2022-12-18T09:45:41;100190.22;;;17.69;48.73
76106;BME280;64832;45.274;5.880;2022-12-18T09:48:16;100185.84;;;17.68;48.66
76106;BME280;64832;45.274;5.880;2022-12-18T09:50:44;100193.16;;;17.74;48.36
76106;BME280;64832;45.274;5.880;2022-12-18T09:53:24;100187.13;;;17.79;48.38
76106;BME280;64832;45.274;5.880;2022-12-18T09:55:52;100183.19;;;17.75;48.63
76106;BME280;64832;45.274;5.880;2022-12-18T10:00:54;100199.25;;;17.83;47.99
76106;BME280;64832;45.274;5.880;2022-12-18T10:03:20;100194.22;;;17.80;48.03
76106;BME280;64832;45.274;5.880;2022-12-18T10:08:19;100206.97;;;17.92;48.28
76106;BME280;64832;45.274;5.880;2022-12-18T10:10:57;100204.94;;;17.94;47.82
76106;BME280;64832;45.274;5.880;2022-12-18T10:13:48;100199.31;;;17.96;48.02
76106;BME280;64832;45.274;5.880;2022-12-18T10:16:27;100195.75;;;17.95;47.92
76106;BME280;64832;45.274;5.880;2022-12-18T10:19:08;100215.59;;;18.09;47.89
76106;BME280;64832;45.274;5.880;2022-12-18T10:21:48;100212.69;;;18.10;47.80
76106;BME280;64832;45.274;5.880;2022-12-18T10:26:52;100211.25;;;18.21;47.70
76106;BME280;64832;45.274;5.880;2022-12-18T10:29:19;100205.03;;;18.27;47.27
76106;BME280;64832;45.274;5.880;2022-12-18T10:31:44;100184.63;;;18.25;47.32
76106;BME280;64832;45.274;5.880;2022-12-18T10:34:11;100196.75;;;18.42;47.40
76106;BME280;64832;45.274;5.880;2022-12-18T10:36:37;100193.66;;;18.51;47.04
76106;BME280;64832;45.274;5.880;2022-12-18T10:39:17;100187.19;;;18.59;46.90
76106;BME280;64832;45.274;5.880;2022-12-18T10:41:43;100169.69;;;18.61;46.91
76106;BME280;64832;45.274;5.880;2022-12-18T10:44:23;100180.97;;;18.71;46.64
76106;BME280;64832;45.274;5.880;2022-12-18T10:46:53;100182.22;;;18.82;46.59
76106;BME280;64832;45.274;5.880;2022-12-18T10:49:22;100176.41;;;18.92;46.54
76106;BME280;64832;45.274;5.880;2022-12-18T10:51:48;100172.63;;;18.99;46.27
76106;BME280;64832;45.274;5.880;2022-12-18T10:54:18;100164.91;;;19.09;45.96
76106;BME280;64832;45.274;5.880;2022-12-18T10:56:45;100164.91;;;19.16;45.84
76106;BME280;64832;45.274;5.880;2022-12-18T10:59:13;100159.88;;;19.19;45.76
76106;BME280;64832;45.274;5.880;2022-12-18T11:02:10;100164.25;;;19.27;46.00
76106;BME280;64832;45.274;5.880;2022-12-18T11:04:51;100175.72;;;19.35;45.76
76106;BME280;64832;45.274;5.880;2022-12-18T11:07:17;100169.44;;;19.42;45.62
76106;BME280;64832;45.274;5.880;2022-12-18T11:09:42;100173.66;;;19.44;45.52
76106;BME280;64832;45.274;5.880;2022-12-18T11:12:17;100159.84;;;19.46;45.68
76106;BME280;64832;45.274;5.880;2022-12-18T11:14:47;100164.44;;;19.52;45.40
76106;BME280;64832;45.274;5.880;2022-12-18T11:17:32;100152.94;;;19.56;45.47
76106;BME280;64832;45.274;5.880;2022-12-18T11:20:05;100150.00;;;19.58;45.59
76106;BME280;64832;45.274;5.880;2022-12-18T11:22:36;100133.09;;;19.56;45.60
76106;BME280;64832;45.274;5.880;2022-12-18T11:27:37;100140.13;;;19.76;45.32
76106;BME280;64832;45.274;5.880;2022-12-18T11:32:45;100136.31;;;19.84;45.28
76106;BME280;64832;45.274;5.880;2022-12-18T11:35:21;100132.13;;;19.88;45.51
76106;BME280;64832;45.274;5.880;2022-12-18T11:37:54;100127.91;;;19.99;45.33
76106;BME280;64832;45.274;5.880;2022-12-18T11:40:30;100132.47;;;20.05;45.17
76106;BME280;64832;45.274;5.880;2022-12-18T11:43:10;100114.84;;;20.14;45.18
76106;BME280;64832;45.274;5.880;2022-12-18T11:45:46;100116.91;;;20.18;45.11
76106;BME280;64832;45.274;5.880;2022-12-18T11:48:18;100108.09;;;20.23;45.18
76106;BME280;64832;45.274;5.880;2022-12-18T11:50:53;100116.47;;;20.28;45.40
76106;BME280;64832;45.274;5.880;2022-12-18T11:53:19;100109.31;;;20.33;45.24
76106;BME280;64832;45.274;5.880;2022-12-18T11:56:05;100107.59;;;20.39;45.23
76106;BME280;64832;45.274;5.880;2022-12-18T11:58:47;100104.69;;;20.40;45.26
76106;BME280;64832;45.274;5.880;2022-12-18T12:01:55;100088.53;;;20.45;45.00
76106;BME280;64832;45.274;5.880;2022-12-18T12:23:51;100070.66;;;20.81;44.60
76106;BME280;64832;45.274;5.880;2022-12-18T12:26:36;100074.59;;;20.85;44.38
76106;BME280;64832;45.274;5.880;2022-12-18T12:32:05;100065.38;;;20.86;44.30
76106;BME280;64832;45.274;5.880;2022-12-18T12:40:03;100043.94;;;20.96;43.88
76106;BME280;64832;45.274;5.880;2022-12-18T12:42:42;100040.25;;;21.08;44.32
76106;BME280;64832;45.274;5.880;2022-12-18T12:45:36;100029.97;;;21.11;44.23
76106;BME280;64832;45.274;5.880;2022-12-18T12:48:06;100031.69;;;21.05;44.04
76106;BME280;64832;45.274;5.880;2022-12-18T12:50:37;100037.13;;;21.05;41.11
76106;BME280;64832;45.274;5.880;2022-12-18T12:53:07;100023.81;;;20.79;42.01
76106;BME280;64832;45.274;5.880;2022-12-18T12:55:37;100024.47;;;20.74;43.70
76106;BME280;64832;45.274;5.880;2022-12-18T12:58:16;100021.53;;;20.76;44.30
76106;BME280;64832;45.274;5.880;2022-12-18T13:01:02;100017.09;;;20.81;44.50
76106;BME280;64832;45.274;5.880;2022-12-18T13:04:42;100013.94;;;20.84;44.63
76106;BME280;64832;45.274;5.880;2022-12-18T13:06:54;100015.13;;;20.88;44.73
76106;BME280;64832;45.274;5.880;2022-12-18T13:09:24;100020.94;;;20.92;45.13
76106;BME280;64832;45.274;5.880;2022-12-18T13:11:49;100016.94;;;20.94;45.18
76106;BME280;64832;45.274;5.880;2022-12-18T13:14:36;100007.75;;;20.95;45.30
76106;BME280;64832;45.274;5.880;2022-12-18T13:20:08;100006.59;;;21.03;45.38
76106;BME280;64832;45.274;5.880;2022-12-18T13:22:38;99995.97;;;21.01;45.83
76106;BME280;64832;45.274;5.880;2022-12-18T13:25:34;99997.56;;;21.09;45.73
76106;BME280;64832;45.274;5.880;2022-12-18T13:28:01;99995.69;;;21.10;45.95
76106;BME280;64832;45.274;5.880;2022-12-18T13:38:35;99986.13;;;21.19;46.10
76106;BME280;64832;45.274;5.880;2022-12-18T13:46:03;99993.63;;;21.23;46.43
76106;BME280;64832;45.274;5.880;2022-12-18T13:48:31;99988.63;;;21.20;46.49
76106;BME280;64832;45.274;5.880;2022-12-18T13:51:06;99974.19;;;21.20;46.62
76106;BME280;64832;45.274;5.880;2022-12-18T13:54:33;99976.22;;;21.24;46.58
76106;BME280;64832;45.274;5.880;2022-12-18T13:56:44;99990.91;;;21.23;46.69
76106;BME280;64832;45.274;5.880;2022-12-18T13:59:20;99982.28;;;21.26;46.76
76106;BME280;64832;45.274;5.880;2022-12-18T14:01:50;99984.38;;;21.24;46.61
76106;BME280;64832;45.274;5.880;2022-12-18T14:04:36;99987.94;;;21.25;46.62
76106;BME280;64832;45.274;5.880;2022-12-18T14:07:05;99987.34;;;21.23;46.67
76106;BME280;64832;45.274;5.880;2022-12-18T14:09:41;99995.50;;;21.23;46.68
76106;BME280;64832;45.274;5.880;2022-12-18T14:12:16;99993.25;;;21.20;46.77
76106;BME280;64832;45.274;5.880;2022-12-18T14:17:57;99995.50;;;21.23;46.90
76106;BME280;64832;45.274;5.880;2022-12-18T14:20:24;99992.34;;;21.26;46.75
76106;BME280;64832;45.274;5.880;2022-12-18T14:22:50;99998.13;;;21.29;46.59
76106;BME280;64832;45.274;5.880;2022-12-18T14:25:22;99996.63;;;21.33;46.85
76106;BME280;64832;45.274;5.880;2022-12-18T14:27:51;99996.38;;;21.35;46.63
76106;BME280;64832;45.274;5.880;2022-12-18T14:30:24;100003.28;;;21.37;46.84
76106;BME280;64832;45.274;5.880;2022-12-18T14:33:08;99999.72;;;21.37;46.81
76106;BME280;64832;45.274;5.880;2022-12-18T14:35:37;100005.31;;;21.42;46.88
76106;BME280;64832;45.274;5.880;2022-12-18T14:38:31;99997.53;;;21.45;47.09
76106;BME280;64832;45.274;5.880;2022-12-18T14:43:36;100000.38;;;21.50;46.75
76106;BME280;64832;45.274;5.880;2022-12-18T14:46:06;99997.09;;;21.60;47.03
76106;BME280;64832;45.274;5.880;2022-12-18T14:48:48;100004.94;;;21.68;46.91
76106;BME280;64832;45.274;5.880;2022-12-18T14:51:22;100006.97;;;21.73;46.74
76106;BME280;64832;45.274;5.880;2022-12-18T14:56:32;100006.97;;;21.73;46.65
76106;BME280;64832;45.274;5.880;2022-12-18T14:59:04;99993.94;;;21.75;46.54
76106;BME280;64832;45.274;5.880;2022-12-18T15:01:38;100000.25;;;21.75;46.40
76106;BME280;64832;45.274;5.880;2022-12-18T15:07:14;100002.13;;;21.75;46.58
76106;BME280;64832;45.274;5.880;2022-12-18T15:09:43;99979.44;;;21.62;46.42
76106;BME280;64832;45.274;5.880;2022-12-18T15:12:27;99995.38;;;21.77;46.26
76106;BME280;64832;45.274;5.880;2022-12-18T15:14:58;99991.81;;;21.77;46.39
76106;BME280;64832;45.274;5.880;2022-12-18T15:17:23;99996.81;;;21.80;46.40
76106;BME280;64832;45.274;5.880;2022-12-18T15:19:52;99996.81;;;21.80;46.12
76106;BME280;64832;45.274;5.880;2022-12-18T15:22:29;100000.38;;;21.80;46.22
76106;BME280;64832;45.274;5.880;2022-12-18T15:24:56;100005.22;;;21.78;46.16
76106;BME280;64832;45.274;5.880;2022-12-18T15:27:36;100003.19;;;21.74;46.20
76106;BME280;64832;45.274;5.880;2022-12-18T15:32:35;100001.06;;;21.46;46.53
76106;BME280;64832;45.274;5.880;2022-12-18T15:35:22;99990.72;;;21.36;46.66
76106;BME280;64832;45.274;5.880;2022-12-18T15:37:48;99990.44;;;21.26;46.54
76106;BME280;64832;45.274;5.880;2022-12-18T15:40:17;99993.50;;;21.18;46.73
76106;BME280;64832;45.274;5.880;2022-12-18T15:42:43;100002.56;;;21.12;46.97
76106;BME280;64832;45.274;5.880;2022-12-18T15:45:27;99997.97;;;21.06;46.97
76106;BME280;64832;45.274;5.880;2022-12-18T15:47:53;99995.97;;;21.01;47.05
76106;BME280;64832;45.274;5.880;2022-12-18T15:50:18;99994.72;;;20.97;47.12
76106;BME280;64832;45.274;5.880;2022-12-18T15:52:45;99996.22;;;20.93;47.27
76106;BME280;64832;45.274;5.880;2022-12-18T15:55:16;99991.47;;;20.89;47.25
76106;BME280;64832;45.274;5.880;2022-12-18T15:58:01;99989.66;;;20.83;47.43
76106;BME280;64832;45.274;5.880;2022-12-18T16:00:26;99993.06;;;20.78;47.42
76106;BME280;64832;45.274;5.880;2022-12-18T16:02:52;99998.13;;;20.75;47.63
76106;BME280;64832;45.274;5.880;2022-12-18T16:05:19;100002.97;;;20.73;47.38
76106;BME280;64832;45.274;5.880;2022-12-18T16:07:45;100001.72;;;20.69;47.67
76106;BME280;64832;45.274;5.880;2022-12-18T16:10:12;99995.94;;;20.65;47.70
76106;BME280;64832;45.274;5.880;2022-12-18T16:12:37;100003.69;;;20.62;47.89
76106;BME280;64832;45.274;5.880;2022-12-18T16:15:04;100001.66;;;20.57;47.79
76106;BME280;64832;45.274;5.880;2022-12-18T16:17:30;99997.72;;;20.53;47.88
76106;BME280;64832;45.274;5.880;2022-12-18T16:19:56;100011.53;;;20.52;48.13
76106;BME280;64832;45.274;5.880;2022-12-18T16:22:24;100008.44;;;20.48;48.04
76106;BME280;64832;45.274;5.880;2022-12-18T16:24:51;99996.34;;;20.44;48.11
76106;BME280;64832;45.274;5.880;2022-12-18T16:27:17;100003.88;;;20.42;48.16
76106;BME280;64832;45.274;5.880;2022-12-18T16:29:42;99991.84;;;20.31;48.19
76106;BME280;64832;45.274;5.880;2022-12-18T16:32:12;100000.41;;;20.35;48.13
76106;BME280;64832;45.274;5.880;2022-12-18T16:34:38;100009.00;;;20.32;48.35
76106;BME280;64832;45.274;5.880;2022-12-18T16:37:05;100012.75;;;20.31;48.28
76106;BME280;64832;45.274;5.880;2022-12-18T16:39:32;100015.09;;;20.27;48.30
76106;BME280;64832;45.274;5.880;2022-12-18T16:42:00;100010.94;;;20.25;48.29
76106;BME280;64832;45.274;5.880;2022-12-18T16:44:26;100005.69;;;20.23;48.37
76106;BME280;64832;45.274;5.880;2022-12-18T16:46:51;100006.13;;;20.20;48.25
76106;BME280;64832;45.274;5.880;2022-12-18T16:49:17;100011.16;;;20.17;48.53
76106;BME280;64832;45.274;5.880;2022-12-18T16:51:45;100017.69;;;20.16;48.48
76106;BME280;64832;45.274;5.880;2022-12-18T16:54:11;100021.63;;;20.13;48.81
76106;BME280;64832;45.274;5.880;2022-12-18T16:56:37;100026.25;;;20.13;48.57
76106;BME280;64832;45.274;5.880;2022-12-18T16:59:02;100024.81;;;20.10;48.68
76106;BME280;64832;45.274;5.880;2022-12-18T17:01:29;100020.88;;;20.06;48.74
76106;BME280;64832;45.274;5.880;2022-12-18T17:04:00;100027.13;;;20.07;48.93
76106;BME280;64832;45.274;5.880;2022-12-18T17:06:28;100030.28;;;20.04;48.76
76106;BME280;64832;45.274;5.880;2022-12-18T17:08:57;100034.28;;;20.01;49.07
76106;BME280;64832;45.274;5.880;2022-12-18T17:11:24;100049.97;;;19.99;49.10
76106;BME280;64832;45.274;5.880;2022-12-18T17:13:50;100044.34;;;19.94;48.97
76106;BME280;64832;45.274;5.880;2022-12-18T17:16:16;100048.97;;;19.93;49.09
76106;BME280;64832;45.274;5.880;2022-12-18T17:18:42;100049.00;;;19.87;48.90
76106;BME280;64832;45.274;5.880;2022-12-18T17:21:08;100044.22;;;19.82;49.01
76106;BME280;64832;45.274;5.880;2022-12-18T17:23:35;100035.69;;;19.79;49.28
76106;BME280;64832;45.274;5.880;2022-12-18T17:26:02;100052.97;;;19.84;49.35
76106;BME280;64832;45.274;5.880;2022-12-18T17:28:29;100050.47;;;19.83;49.44
76106;BME280;64832;45.274;5.880;2022-12-18T17:30:55;100052.38;;;19.82;49.65
76106;BME280;64832;45.274;5.880;2022-12-18T17:33:21;100045.28;;;19.81;49.50
76106;BME280;64832;45.274;5.880;2022-12-18T17:35:47;100053.66;;;19.80;49.77
76106;BME280;64832;45.274;5.880;2022-12-18T17:38:12;100046.53;;;19.79;50.07
76106;BME280;64832;45.274;5.880;2022-12-18T17:40:38;100056.56;;;19.78;50.08
76106;BME280;64832;45.274;5.880;2022-12-18T17:43:05;100045.28;;;19.75;50.22
76106;BME280;64832;45.274;5.880;2022-12-18T17:45:30;100051.56;;;19.75;50.40
76106;BME280;64832;45.274;5.880;2022-12-18T17:47:56;100044.03;;;19.77;50.69
76106;BME280;64832;45.274;5.880;2022-12-18T17:50:21;100051.38;;;19.77;50.72
76106;BME280;64832;45.274;5.880;2022-12-18T17:52:47;100053.25;;;19.76;50.85
76106;BME280;64832;45.274;5.880;2022-12-18T17:55:12;100023.69;;;19.55;50.86
76106;BME280;64832;45.274;5.880;2022-12-18T17:57:37;100077.69;;;19.76;50.94
76106;BME280;64832;45.274;5.880;2022-12-18T18:00:04;100075.81;;;19.77;51.25
76106;BME280;64832;45.274;5.880;2022-12-18T18:02:30;100080.41;;;19.76;51.36
76106;BME280;64832;45.274;5.880;2022-12-18T18:04:56;100073.50;;;19.74;51.44
76106;BME280;64832;45.274;5.880;2022-12-18T18:07:21;100079.56;;;19.76;51.30
76106;BME280;64832;45.274;5.880;2022-12-18T18:09:46;100072.44;;;19.75;51.53
76106;BME280;64832;45.274;5.880;2022-12-18T18:12:12;100079.56;;;19.76;51.52
76106;BME280;64832;45.274;5.880;2022-12-18T18:14:55;100073.50;;;19.74;51.45
76106;BME280;64832;45.274;5.880;2022-12-18T18:17:21;100076.84;;;19.76;51.58
76106;BME280;64832;45.274;5.880;2022-12-18T18:19:46;100068.94;;;19.74;51.60
76106;BME280;64832;45.274;5.880;2022-12-18T18:22:12;100076.00;;;19.75;51.83
76106;BME280;64832;45.274;5.880;2022-12-18T18:24:37;100087.94;;;19.74;51.78
76106;BME280;64832;45.274;5.880;2022-12-18T18:27:02;100076.22;;;19.74;52.03
76106;BME280;64832;45.274;5.880;2022-12-18T18:29:28;100087.94;;;19.74;51.84
76106;BME280;64832;45.274;5.880;2022-12-18T18:31:57;100091.44;;;19.75;51.91
76106;BME280;64832;45.274;5.880;2022-12-18T18:34:26;100088.53;;;19.76;52.00
76106;BME280;64832;45.274;5.880;2022-12-18T18:36:52;100085.81;;;19.76;51.88
76106;BME280;64832;45.274;5.880;2022-12-18T18:39:18;100089.16;;;19.78;52.14
76106;BME280;64832;45.274;5.880;2022-12-18T18:41:43;100083.94;;;19.77;52.07
76106;BME280;64832;45.274;5.880;2022-12-18T18:44:09;100088.09;;;19.79;52.31
76106;BME280;64832;45.274;5.880;2022-12-18T18:46:35;100087.47;;;19.77;52.24
76106;BME280;64832;45.274;5.880;2022-12-18T18:49:00;100081.84;;;19.79;52.14
76106;BME280;64832;45.274;5.880;2022-12-18T18:51:26;100080.16;;;19.78;52.32
76106;BME280;64832;45.274;5.880;2022-12-18T18:53:52;100086.66;;;19.77;52.39
76106;BME280;64832;45.274;5.880;2022-12-18T18:56:20;100090.81;;;19.79;52.37
76106;BME280;64832;45.274;5.880;2022-12-18T18:58:46;100103.31;;;19.80;52.43
76106;BME280;64832;45.274;5.880;2022-12-18T19:01:14;100101.44;;;19.81;52.22
76106;BME280;64832;45.274;5.880;2022-12-18T19:03:40;100101.88;;;19.78;52.13
76106;BME280;64832;45.274;5.880;2022-12-18T19:06:07;100100.22;;;19.77;52.16
76106;BME280;64832;45.274;5.880;2022-12-18T19:08:36;100101.69;;;19.79;52.10
76106;BME280;64832;45.274;5.880;2022-12-18T19:11:04;100109.81;;;19.79;51.57
76106;BME280;64832;45.274;5.880;2022-12-18T19:13:32;100105.03;;;19.75;51.71
76106;BME280;64832;45.274;5.880;2022-12-18T19:16:05;100117.56;;;19.76;51.97
76106;BME280;64832;45.274;5.880;2022-12-18T19:18:31;100109.84;;;19.73;51.79
76106;BME280;64832;45.274;5.880;2022-12-18T19:21:01;100105.66;;;19.77;51.84
76106;BME280;64832;45.274;5.880;2022-12-18T19:23:28;100102.13;;;19.76;51.67
76106;BME280;64832;45.274;5.880;2022-12-18T19:25:54;100090.81;;;19.79;51.64
76106;BME280;64832;45.274;5.880;2022-12-18T19:28:21;100087.28;;;19.79;51.70
76106;BME280;64832;45.274;5.880;2022-12-18T19:30:55;100085.38;;;19.79;51.56
76106;BME280;64832;45.274;5.880;2022-12-18T19:33:22;100076.59;;;19.77;51.60
76106;BME280;64832;45.274;5.880;2022-12-18T19:35:49;100082.44;;;19.81;51.49
76106;BME280;64832;45.274;5.880;2022-12-18T19:38:15;100080.16;;;19.78;51.51
76106;BME280;64832;45.274;5.880;2022-12-18T19:40:41;100067.41;;;19.78;51.51
76106;BME280;64832;45.274;5.880;2022-12-18T19:43:07;100074.53;;;19.79;51.59
76106;BME280;64832;45.274;5.880;2022-12-18T19:45:32;100072.84;;;19.78;51.39
76106;BME280;64832;45.274;5.880;2022-12-18T19:47:58;100072.66;;;19.80;51.54
76106;BME280;64832;45.274;5.880;2022-12-18T19:50:24;100079.31;;;19.77;51.49
76106;BME280;64832;45.274;5.880;2022-12-18T19:52:49;100087.28;;;19.79;51.64
76106;BME280;64832;45.274;5.880;2022-12-18T19:55:15;100079.16;;;19.72;51.67
76106;BME280;64832;45.274;5.880;2022-12-18T19:57:40;100086.44;;;19.78;51.59
76106;BME280;64832;45.274;5.880;2022-12-18T20:00:06;100092.69;;;19.79;51.75
76106;BME280;64832;45.274;5.880;2022-12-18T20:02:31;100092.09;;;19.77;51.68
76106;BME280;64832;45.274;5.880;2022-12-18T20:05:04;100081.22;;;19.77;52.00
76106;BME280;64832;45.274;5.880;2022-12-18T20:07:30;100087.94;;;19.74;51.49
76106;BME280;64832;45.274;5.880;2022-12-18T20:09:56;100087.09;;;19.74;51.54
76106;BME280;64832;45.274;5.880;2022-12-18T20:12:22;100099.41;;;19.76;51.73
76106;BME280;64832;45.274;5.880;2022-12-18T20:14:47;100089.75;;;19.80;51.78
76106;BME280;64832;45.274;5.880;2022-12-18T20:17:12;100104.16;;;19.81;51.66
76106;BME280;64832;45.274;5.880;2022-12-18T20:19:38;100089.16;;;19.72;51.72
76106;BME280;64832;45.274;5.880;2022-12-18T20:22:03;100097.09;;;19.80;51.86
76106;BME280;64832;45.274;5.880;2022-12-18T20:24:29;100096.03;;;19.81;51.65
76106;BME280;64832;45.274;5.880;2022-12-18T20:26:54;100103.97;;;19.82;51.76
76106;BME280;64832;45.274;5.880;2022-12-18T20:29:20;100094.97;;;19.82;51.77
76106;BME280;64832;45.274;5.880;2022-12-18T20:31:46;100093.91;;;19.83;51.77
76106;BME280;64832;45.274;5.880;2022-12-18T20:34:11;100094.75;;;19.83;51.48
76106;BME280;64832;45.274;5.880;2022-12-18T20:36:36;100096.63;;;19.83;51.75
76106;BME280;64832;45.274;5.880;2022-12-18T20:39:03;100103.31;;;19.87;51.57
76106;BME280;64832;45.274;5.880;2022-12-18T20:41:29;100089.72;;;19.87;51.42
76106;BME280;64832;45.274;5.880;2022-12-18T20:43:55;100082.41;;;19.87;51.27
76106;BME280;64832;45.274;5.880;2022-12-18T20:46:20;100066.97;;;19.88;51.16
76106;BME280;64832;45.274;5.880;2022-12-18T20:48:46;100077.41;;;19.91;51.04
76106;BME280;64832;45.274;5.880;2022-12-18T20:51:19;100068.19;;;19.92;51.16
76106;BME280;64832;45.274;5.880;2022-12-18T20:53:46;100070.06;;;19.91;50.84
76106;BME280;64832;45.274;5.880;2022-12-18T20:56:19;100082.59;;;19.92;50.92
76106;BME280;64832;45.274;5.880;2022-12-18T20:58:45;100085.31;;;19.92;50.71
76106;BME280;64832;45.274;5.880;2022-12-18T21:01:16;100086.16;;;19.93;50.52
76106;BME280;64832;45.274;5.880;2022-12-18T21:03:42;100081.16;;;19.90;50.55
76106;BME280;64832;45.274;5.880;2022-12-18T21:06:09;100098.06;;;19.92;50.36
76106;BME280;64832;45.274;5.880;2022-12-18T21:08:35;100097.44;;;19.90;50.50
76106;BME280;64832;45.274;5.880;2022-12-18T21:11:30;100096.78;;;19.94;50.34
76106;BME280;64832;45.274;5.880;2022-12-18T21:14:17;100083.88;;;19.90;50.23
76106;BME280;64832;45.274;5.880;2022-12-18T21:16:44;100075.72;;;19.90;50.12
76106;BME280;64832;45.274;5.880;2022-12-18T21:19:11;100068.41;;;19.90;50.32
76106;BME280;64832;45.274;5.880;2022-12-18T21:21:37;100067.78;;;19.88;49.99
76106;BME280;64832;45.274;5.880;2022-12-18T21:24:03;100061.09;;;19.91;49.91
76106;BME280;64832;45.274;5.880;2022-12-18T21:26:28;100041.69;;;19.87;49.94
76106;BME280;64832;45.274;5.880;2022-12-18T21:28:58;100028.13;;;19.87;49.83
76106;BME280;64832;45.274;5.880;2022-12-18T21:31:27;100030.59;;;19.89;49.82
76106;BME280;64832;45.274;5.880;2022-12-18T21:33:53;100021.84;;;19.87;49.80
76106;BME280;64832;45.274;5.880;2022-12-18T21:36:18;100027.28;;;19.87;49.77
76106;BME280;64832;45.274;5.880;2022-12-18T21:38:44;100036.47;;;19.86;49.67
76106;BME280;64832;45.274;5.880;2022-12-18T21:41:10;100055.47;;;19.86;49.66
76106;BME280;64832;45.274;5.880;2022-12-18T21:43:54;100040.25;;;19.85;49.54
76106;BME280;64832;45.274;5.880;2022-12-18T21:46:39;100047.56;;;19.84;49.51
76106;BME280;64832;45.274;5.880;2022-12-18T21:49:06;100062.16;;;19.83;49.43
76106;BME280;64832;45.274;5.880;2022-12-18T21:51:32;100065.53;;;19.85;49.33
76106;BME280;64832;45.274;5.880;2022-12-18T21:53:58;100066.75;;;19.83;49.35
76106;BME280;64832;45.274;5.880;2022-12-18T21:56:24;100071.59;;;19.81;49.28
76106;BME280;64832;45.274;5.880;2022-12-18T21:58:50;100082.00;;;19.84;49.32
76106;BME280;64832;45.274;5.880;2022-12-18T22:01:16;100093.09;;;19.82;49.28
76106;BME280;64832;45.274;5.880;2022-12-18T22:03:43;100094.97;;;19.82;49.21
76106;BME280;64832;45.274;5.880;2022-12-18T22:06:09;100109.59;;;19.81;49.06
76106;BME280;64832;45.274;5.880;2022-12-18T22:08:35;100105.44;;;19.78;49.32
76106;BME280;64832;45.274;5.880;2022-12-18T22:11:00;100103.56;;;19.79;49.08
76106;BME280;64832;45.274;5.880;2022-12-18T22:13:26;100104.59;;;19.78;49.20
76106;BME280;64832;45.274;5.880;2022-12-18T22:15:51;100098.56;;;19.76;49.13
76106;BME280;64832;45.274;5.880;2022-12-18T22:18:16;100098.78;;;19.74;49.11
76106;BME280;64832;45.274;5.880;2022-12-18T22:20:42;100095.84;;;19.76;48.95
76106;BME280;64832;45.274;5.880;2022-12-18T22:23:07;100096.88;;;19.75;49.09
76106;BME280;64832;45.274;5.880;2022-12-18T22:25:34;100102.94;;;19.77;48.87
76106;BME280;64832;45.274;5.880;2022-12-18T22:27:59;100087.94;;;19.74;48.86
76106;BME280;64832;45.274;5.880;2022-12-18T22:30:43;100089.16;;;19.72;48.88
76106;BME280;64832;45.274;5.880;2022-12-18T22:33:09;100077.50;;;19.71;48.90
76106;BME280;64832;45.274;5.880;2022-12-18T22:35:34;100073.34;;;19.69;48.77
76106;BME280;64832;45.274;5.880;2022-12-18T22:38:00;100068.53;;;19.71;48.75
76106;BME280;64832;45.274;5.880;2022-12-18T22:40:27;100075.59;;;19.72;48.73
76106;BME280;64832;45.274;5.880;2022-12-18T22:42:53;100070.16;;;19.72;48.66
76106;BME280;64832;45.274;5.880;2022-12-18T22:45:18;100074.16;;;19.69;48.67
76106;BME280;64832;45.274;5.880;2022-12-18T22:47:44;100072.09;;;19.65;48.72
76106;BME280;64832;45.274;5.880;2022-12-18T22:50:11;100073.34;;;19.69;48.70
76106;BME280;64832;45.274;5.880;2022-12-18T22:52:38;100072.09;;;19.65;48.93
76106;BME280;64832;45.274;5.880;2022-12-18T22:55:04;100062.09;;;19.59;48.87
76106;BME280;64832;45.274;5.880;2022-12-18T22:57:30;100065.03;;;19.57;48.59
76106;BME280;64832;45.274;5.880;2022-12-18T22:59:55;100068.19;;;19.54;48.80
76106;BME280;64832;45.274;5.880;2022-12-18T23:02:21;100065.28;;;19.49;48.69
76106;BME280;64832;45.274;5.880;2022-12-18T23:04:46;100070.72;;;19.49;48.95
76106;BME280;64832;45.274;5.880;2022-12-18T23:07:11;100061.31;;;19.52;49.17
76106;BME280;64832;45.274;5.880;2022-12-18T23:09:37;100067.34;;;19.54;49.52
